createdAt,value
2022-12-24T00:02:07.652Z,41.53
2022-12-24T00:04:35.591Z,32.65
2022-12-24T00:07:03.404Z,36.08
2022-12-24T00:09:31.439Z,34.35
2022-12-24T00:12:01.239Z,39.13
2022-12-24T00:14:29.172Z,36.97
2022-12-24T00:16:56.996Z,37.70
2022-12-24T00:19:25.402Z,34.10
2022-12-24T00:21:54.312Z,39.97
2022-12-24T00:24:22.211Z,28.85
2022-12-24T00:26:50.647Z,42.97
2022-12-24T00:29:20.718Z,30.58
2022-12-24T00:31:48.669Z,32.97
2022-12-24T00:34:17.051Z,34.85
2022-12-24T00:36:44.764Z,39.60
2022-12-24T00:39:12.721Z,43.80
2022-12-24T00:41:42.911Z,32.97
2022-12-24T00:44:12.156Z,29.52
2022-12-24T00:46:43.211Z,33.50
2022-12-24T00:49:12.746Z,37.22
2022-12-24T00:51:40.881Z,40.05
2022-12-24T00:54:09.555Z,36.45
2022-12-24T00:56:37.426Z,31.40
2022-12-24T00:59:05.552Z,31.58
2022-12-24T01:01:34.089Z,34.58
2022-12-24T01:04:17.548Z,36.45
2022-12-24T01:06:46.359Z,32.88
2022-12-24T01:09:14.301Z,36.58
2022-12-24T01:11:42.148Z,29.50
2022-12-24T01:14:10.526Z,29.40
2022-12-24T01:16:38.401Z,35.28
2022-12-24T01:19:07.751Z,41.95
2022-12-24T01:21:36.000Z,36.50
2022-12-24T01:24:03.929Z,33.10
2022-12-24T01:26:31.730Z,36.47
2022-12-24T01:29:00.421Z,26.70
2022-12-24T01:31:28.270Z,25.02
2022-12-24T01:33:56.258Z,17.40
2022-12-24T01:36:25.775Z,21.85
2022-12-24T01:38:53.539Z,27.33
2022-12-24T01:41:41.573Z,30.17
2022-12-24T01:44:33.404Z,38.10
2022-12-24T01:47:11.766Z,30.98
2022-12-24T01:49:42.978Z,27.48
2022-12-24T01:52:16.336Z,29.58
2022-12-24T01:54:51.604Z,35.95
2022-12-24T01:57:24.293Z,28.30
2022-12-24T01:59:56.215Z,38.75
2022-12-24T02:02:25.069Z,43.78
2022-12-24T02:04:59.091Z,32.05
2022-12-24T02:07:28.860Z,31.60
2022-12-24T02:09:59.584Z,38.72
2022-12-24T02:12:28.393Z,29.65
2022-12-24T02:14:56.597Z,34.50
2022-12-24T02:17:32.995Z,39.53
2022-12-24T02:20:35.029Z,28.65
2022-12-24T02:23:32.530Z,39.70
2022-12-24T02:26:15.764Z,31.63
2022-12-24T02:29:07.639Z,32.80
2022-12-24T02:31:42.977Z,31.80
2022-12-24T02:36:48.458Z,27.27
2022-12-24T02:39:23.635Z,27.65
2022-12-24T02:42:07.358Z,33.97
2022-12-24T02:44:40.764Z,26.23
2022-12-24T02:47:12.157Z,23.08
2022-12-24T02:49:40.201Z,22.77
2022-12-24T02:52:07.957Z,24.73
2022-12-24T02:54:36.126Z,30.48
2022-12-24T02:57:18.855Z,28.33
2022-12-24T03:00:00.565Z,26.70
2022-12-24T03:02:41.505Z,28.65
2022-12-24T03:05:22.401Z,27.77
2022-12-24T03:08:04.776Z,29.30
2022-12-24T03:10:39.776Z,33.95
2022-12-24T03:13:11.667Z,21.40
2022-12-24T03:15:41.138Z,30.25
2022-12-24T03:18:13.252Z,26.45
2022-12-24T03:20:43.787Z,32.08
2022-12-24T03:23:12.439Z,30.65
2022-12-24T03:25:44.027Z,45.05
2022-12-24T03:28:15.238Z,32.03
2022-12-24T03:30:44.558Z,28.05
2022-12-24T03:33:14.836Z,39.50
2022-12-24T03:35:42.852Z,38.17
2022-12-24T03:38:11.343Z,30.35
2022-12-24T03:40:39.215Z,27.42
2022-12-24T03:43:07.371Z,27.80
2022-12-24T03:45:36.052Z,25.20
2022-12-24T03:48:04.290Z,27.55
2022-12-24T03:50:34.145Z,39.17
2022-12-24T03:53:02.019Z,29.55
2022-12-24T03:55:29.919Z,32.70
2022-12-24T03:57:57.800Z,35.67
2022-12-24T04:00:25.781Z,31.08
2022-12-24T04:02:54.840Z,34.15
2022-12-24T04:05:23.158Z,32.63
2022-12-24T04:07:52.809Z,44.33
2022-12-24T04:10:20.683Z,39.13
2022-12-24T04:12:48.565Z,32.40
2022-12-24T04:15:16.501Z,36.90
2022-12-24T04:17:44.341Z,43.55
2022-12-24T04:20:13.598Z,31.95
2022-12-24T04:22:42.306Z,42.75
2022-12-24T04:25:12.652Z,30.75
2022-12-24T04:27:40.473Z,37.08
2022-12-24T04:30:09.754Z,40.80
2022-12-24T04:32:38.186Z,39.75
2022-12-24T04:35:06.739Z,41.33
2022-12-24T04:37:35.418Z,29.58
2022-12-24T04:40:03.384Z,43.33
2022-12-24T04:42:32.645Z,33.75
2022-12-24T04:45:00.655Z,39.53
2022-12-24T04:47:28.597Z,36.85
2022-12-24T04:49:56.523Z,41.47
2022-12-24T04:52:24.745Z,28.70
2022-12-24T04:54:52.570Z,35.33
2022-12-24T04:57:20.717Z,42.65
2022-12-24T04:59:50.322Z,28.70
2022-12-24T05:02:18.488Z,33.03
2022-12-24T05:04:46.503Z,43.33
2022-12-24T05:07:14.751Z,40.13
2022-12-24T05:09:42.504Z,41.60
2022-12-24T05:12:10.427Z,40.72
2022-12-24T05:14:38.875Z,34.05
2022-12-24T05:17:08.186Z,40.08
2022-12-24T05:19:36.085Z,35.78
2022-12-24T05:22:21.593Z,33.63
2022-12-24T05:25:07.028Z,33.28
2022-12-24T05:27:34.936Z,31.90
2022-12-24T05:30:02.837Z,36.13
2022-12-24T05:32:32.741Z,38.72
2022-12-24T05:35:00.550Z,34.17
2022-12-24T05:37:28.418Z,45.88
2022-12-24T05:39:56.305Z,27.63
2022-12-24T05:42:24.208Z,32.90
2022-12-24T05:44:52.344Z,40.28
2022-12-24T05:47:20.296Z,36.40
2022-12-24T05:49:49.578Z,47.22
2022-12-24T05:52:17.714Z,39.67
2022-12-24T05:54:45.509Z,35.55
2022-12-24T05:57:13.993Z,39.78
2022-12-24T05:59:41.820Z,36.63
2022-12-24T06:02:10.856Z,41.42
2022-12-24T06:04:39.080Z,32.88
2022-12-24T06:07:08.427Z,38.70
2022-12-24T06:09:36.803Z,37.35
2022-12-24T06:12:04.908Z,35.25
2022-12-24T06:14:32.918Z,38.85
2022-12-24T06:17:02.281Z,37.72
2022-12-24T06:19:30.080Z,39.95
2022-12-24T06:21:57.918Z,30.58
2022-12-24T06:24:27.422Z,43.60
2022-12-24T06:26:55.273Z,41.97
2022-12-24T06:29:23.101Z,36.97
2022-12-24T06:31:51.266Z,39.75
2022-12-24T06:34:19.354Z,32.50
2022-12-24T06:36:47.292Z,38.33
2022-12-24T06:39:15.602Z,37.47
2022-12-24T06:41:45.081Z,37.35
2022-12-24T06:44:12.954Z,41.80
2022-12-24T06:46:40.982Z,37.55
2022-12-24T06:49:09.417Z,33.47
2022-12-24T06:51:37.717Z,37.63
2022-12-24T06:54:05.693Z,47.13
2022-12-24T06:56:33.455Z,38.53
2022-12-24T06:59:05.551Z,42.28
2022-12-24T07:01:33.857Z,47.45
2022-12-24T07:04:01.904Z,50.35
2022-12-24T07:06:31.142Z,39.63
2022-12-24T07:08:59.212Z,41.35
2022-12-24T07:11:28.040Z,38.58
2022-12-24T07:13:55.974Z,32.17
2022-12-24T07:16:25.753Z,46.50
2022-12-24T07:18:53.728Z,35.25
2022-12-24T07:21:21.471Z,41.97
2022-12-24T07:23:49.755Z,32.35
2022-12-24T07:26:17.621Z,40.58
2022-12-24T07:28:45.386Z,28.73
2022-12-24T07:31:13.639Z,37.40
2022-12-24T07:33:43.050Z,40.78
2022-12-24T07:36:16.339Z,39.72
2022-12-24T07:38:44.139Z,41.65
2022-12-24T07:41:12.227Z,45.63
2022-12-24T07:43:40.701Z,27.77
2022-12-24T07:46:08.542Z,30.30
2022-12-24T07:48:36.647Z,30.67
2022-12-24T07:51:06.987Z,30.50
2022-12-24T07:53:35.182Z,38.50
2022-12-24T07:56:07.555Z,36.60
2022-12-24T08:01:06.686Z,34.65
2022-12-24T08:03:34.766Z,36.22
2022-12-24T08:06:03.199Z,45.75
2022-12-24T08:08:32.486Z,40.97
2022-12-24T08:11:04.224Z,38.22
2022-12-24T08:13:32.753Z,35.58
2022-12-24T08:16:00.900Z,47.53
2022-12-24T08:18:28.952Z,46.92
2022-12-24T08:20:56.894Z,37.70
2022-12-24T08:23:24.737Z,60.20
2022-12-24T08:25:54.859Z,45.00
2022-12-24T08:28:22.638Z,43.20
2022-12-24T08:30:51.671Z,41.60
2022-12-24T08:33:20.915Z,46.28
2022-12-24T08:35:50.243Z,35.88
2022-12-24T08:38:18.591Z,42.85
2022-12-24T08:40:49.415Z,47.13
2022-12-24T08:43:19.381Z,41.72
2022-12-24T08:45:49.859Z,51.78
2022-12-24T08:48:17.909Z,51.70
2022-12-24T08:50:46.460Z,43.53
2022-12-24T08:53:14.539Z,48.22
2022-12-24T08:55:42.541Z,42.35
2022-12-24T08:58:10.538Z,37.22
2022-12-24T09:00:40.415Z,36.03
2022-12-24T09:03:08.580Z,42.72
2022-12-24T09:05:41.403Z,57.67
2022-12-24T09:08:09.302Z,36.13
2022-12-24T09:10:37.178Z,42.78
2022-12-24T09:13:05.323Z,41.97
2022-12-24T09:15:33.345Z,37.53
2022-12-24T09:18:02.954Z,39.75
2022-12-24T09:20:31.509Z,37.22
2022-12-24T09:22:59.351Z,43.65
2022-12-24T09:25:28.261Z,41.47
2022-12-24T09:27:57.886Z,50.40
2022-12-24T09:30:25.835Z,48.92
2022-12-24T09:32:53.735Z,48.80
2022-12-24T09:35:23.679Z,46.63
2022-12-24T09:38:02.837Z,49.22
2022-12-24T09:40:37.545Z,39.63
2022-12-24T09:43:12.924Z,57.40
2022-12-24T09:48:17.290Z,40.38
2022-12-24T09:50:53.648Z,43.35
2022-12-24T09:53:25.130Z,43.70
2022-12-24T09:55:57.620Z,52.17
2022-12-24T09:58:29.646Z,39.85
2022-12-24T10:00:58.595Z,39.20
2022-12-24T10:03:27.185Z,41.95
2022-12-24T10:06:08.100Z,42.03
2022-12-24T10:08:45.093Z,44.40
2022-12-24T10:11:20.431Z,32.22
2022-12-24T10:16:30.816Z,30.02
2022-12-24T10:19:12.000Z,39.33
2022-12-24T10:21:52.728Z,41.72
2022-12-24T10:24:26.361Z,38.35
2022-12-24T10:27:00.511Z,32.33
2022-12-24T10:29:31.247Z,45.47
2022-12-24T10:32:07.027Z,36.28
2022-12-24T10:34:39.777Z,38.80
2022-12-24T10:37:16.251Z,41.72
2022-12-24T10:39:44.539Z,36.55
2022-12-24T10:42:14.583Z,39.55
2022-12-24T10:44:43.106Z,35.85
2022-12-24T10:47:12.354Z,42.10
2022-12-24T10:49:47.661Z,43.38
2022-12-24T10:52:22.743Z,32.40
2022-12-24T10:55:09.802Z,36.15
2022-12-24T10:57:39.147Z,39.03
2022-12-24T11:00:10.946Z,37.17
2022-12-24T11:02:40.167Z,35.85
2022-12-24T11:05:28.784Z,35.83
2022-12-24T11:08:02.796Z,39.22
2022-12-24T11:10:31.090Z,38.58
2022-12-24T11:13:35.105Z,44.03
2022-12-24T11:15:47.651Z,47.28
2022-12-24T11:18:16.841Z,37.20
2022-12-24T11:20:52.869Z,36.30
2022-12-24T11:23:23.872Z,35.83
2022-12-24T11:25:53.809Z,42.72
2022-12-24T11:28:24.895Z,36.78
2022-12-24T11:30:59.555Z,31.55
2022-12-24T11:33:28.110Z,45.17
2022-12-24T11:36:02.272Z,33.85
2022-12-24T11:38:33.991Z,36.20
2022-12-24T11:41:06.130Z,39.63
2022-12-24T11:43:47.221Z,39.63
2022-12-24T11:46:38.924Z,48.03
2022-12-24T11:49:15.331Z,52.15
2022-12-24T11:52:02.713Z,68.30
2022-12-24T11:54:38.143Z,45.05
2022-12-24T11:59:39.689Z,43.08
2022-12-24T12:02:20.693Z,89.32
2022-12-24T12:04:53.046Z,39.63
2022-12-24T12:07:26.801Z,51.42
2022-12-24T12:10:01.734Z,42.05
2022-12-24T12:12:32.898Z,39.72
2022-12-24T12:15:05.123Z,32.92
2022-12-24T12:17:36.553Z,36.50
2022-12-24T12:20:12.011Z,42.72
2022-12-24T12:22:47.059Z,38.97
2022-12-24T12:25:23.864Z,37.50
2022-12-24T12:27:55.118Z,32.80
2022-12-24T12:30:24.429Z,35.92
2022-12-24T12:32:58.336Z,38.50
2022-12-24T12:35:29.646Z,46.03
2022-12-24T12:38:02.331Z,33.10
2022-12-24T12:40:56.484Z,37.30
2022-12-24T12:43:40.483Z,27.92
2022-12-24T12:46:17.944Z,44.88
2022-12-24T12:49:02.824Z,45.50
2022-12-24T12:51:40.007Z,27.85
2022-12-24T12:54:25.246Z,54.03
2022-12-24T12:56:57.520Z,37.53
2022-12-24T12:59:34.165Z,34.45
2022-12-24T13:02:15.441Z,29.23
2022-12-24T13:05:02.661Z,40.42
2022-12-24T13:07:52.705Z,31.20
2022-12-24T13:10:54.550Z,30.08
2022-12-24T13:13:46.603Z,34.60
2022-12-24T13:16:54.258Z,39.38
2022-12-24T13:19:38.263Z,33.08
2022-12-24T13:22:07.107Z,33.70
2022-12-24T13:24:36.084Z,37.28
2022-12-24T13:27:07.407Z,38.20
2022-12-24T13:29:52.042Z,43.60
2022-12-24T13:32:50.958Z,32.95
2022-12-24T13:35:38.304Z,32.25
2022-12-24T13:38:43.803Z,31.60
2022-12-24T13:41:50.152Z,25.48
2022-12-24T13:44:24.371Z,41.53
2022-12-24T13:47:00.006Z,30.73
2022-12-24T13:49:32.596Z,29.00
2022-12-24T13:52:19.277Z,39.97
2022-12-24T13:55:01.973Z,34.70
2022-12-24T13:57:38.245Z,30.02
2022-12-24T14:00:10.584Z,38.50
2022-12-24T14:02:47.673Z,28.45
2022-12-24T14:05:22.068Z,39.90
2022-12-24T14:07:51.305Z,36.53
2022-12-24T14:10:26.545Z,34.53
2022-12-24T14:12:54.896Z,35.60
2022-12-24T14:16:02.225Z,26.35
2022-12-24T14:18:35.283Z,27.88
2022-12-24T14:21:04.281Z,30.90
2022-12-24T14:23:38.653Z,31.42
2022-12-24T14:26:15.684Z,30.67
2022-12-24T14:28:48.198Z,33.10
2022-12-24T14:31:19.193Z,38.20
2022-12-24T14:33:48.582Z,37.38
2022-12-24T14:36:23.436Z,41.38
2022-12-24T14:38:51.685Z,26.92
2022-12-24T14:41:31.561Z,32.72
2022-12-24T14:44:09.462Z,28.85
2022-12-24T14:46:45.405Z,31.23
2022-12-24T14:49:25.267Z,29.83
2022-12-24T14:52:04.755Z,37.53
2022-12-24T14:54:39.933Z,42.17
2022-12-24T14:57:17.685Z,27.60
2022-12-24T14:59:48.380Z,34.47
2022-12-24T15:02:26.478Z,33.58
2022-12-24T15:05:11.738Z,40.75
2022-12-24T15:07:47.474Z,35.50
2022-12-24T15:10:26.650Z,29.85
2022-12-24T15:12:57.697Z,48.35
2022-12-24T15:15:25.673Z,45.83
2022-12-24T15:17:53.971Z,33.60
2022-12-24T15:20:26.364Z,33.55
2022-12-24T15:22:57.456Z,33.95
2022-12-24T15:25:28.591Z,32.38
2022-12-24T15:27:57.004Z,30.42
2022-12-24T15:30:26.483Z,41.78
2022-12-24T15:32:56.474Z,27.00
2022-12-24T15:35:45.544Z,30.08
2022-12-24T15:38:28.592Z,36.38
2022-12-24T15:40:58.965Z,38.88
2022-12-24T15:43:28.320Z,36.92
2022-12-24T15:45:56.532Z,32.40
2022-12-24T15:48:27.097Z,24.25
2022-12-24T15:50:59.502Z,32.60
2022-12-24T15:53:31.353Z,30.75
2022-12-24T15:56:06.381Z,33.78
2022-12-24T15:58:36.291Z,32.00
2022-12-24T16:09:46.635Z,34.67
2022-12-24T16:12:18.164Z,34.95
2022-12-24T16:14:53.425Z,34.53
2022-12-24T16:17:24.438Z,30.27
2022-12-24T16:19:55.476Z,35.83
2022-12-24T16:22:35.379Z,33.25
2022-12-24T16:25:17.722Z,34.70
2022-12-24T16:27:47.004Z,29.60
2022-12-24T16:30:15.089Z,36.08
2022-12-24T16:32:44.111Z,30.23
2022-12-24T16:35:24.367Z,36.92
2022-12-24T16:37:54.725Z,30.55
2022-12-24T16:40:32.504Z,39.33
2022-12-24T16:43:18.902Z,30.30
2022-12-24T16:45:48.481Z,31.15
2022-12-24T16:48:28.391Z,38.05
2022-12-24T16:50:56.720Z,33.85
2022-12-24T16:53:26.107Z,41.45
2022-12-24T16:55:53.956Z,34.60
2022-12-24T16:58:22.776Z,31.23
2022-12-24T17:00:51.166Z,34.08
2022-12-24T17:03:19.368Z,25.85
2022-12-24T17:05:47.529Z,36.00
2022-12-24T17:08:15.592Z,31.40
2022-12-24T17:10:52.312Z,22.05
2022-12-24T17:13:22.494Z,30.65
2022-12-24T17:15:50.626Z,32.85
2022-12-24T17:18:18.881Z,31.88
2022-12-24T17:20:47.395Z,30.15
2022-12-24T17:23:15.249Z,30.30
2022-12-24T17:25:44.559Z,34.70
2022-12-24T17:28:13.314Z,37.78
2022-12-24T17:30:41.804Z,28.02
2022-12-24T17:33:14.568Z,31.08
2022-12-24T17:35:44.239Z,24.08
2022-12-24T17:38:12.317Z,35.65
2022-12-24T17:40:42.672Z,34.60
2022-12-24T17:43:12.888Z,38.65
2022-12-24T17:45:42.331Z,30.27
2022-12-24T17:48:10.306Z,34.00
2022-12-24T17:50:40.782Z,37.20
2022-12-24T17:53:11.756Z,83.05
2022-12-24T17:55:43.427Z,77.68
2022-12-24T17:58:15.138Z,68.78
2022-12-24T18:00:43.739Z,64.25
2022-12-24T18:03:14.703Z,73.90
2022-12-24T18:05:42.803Z,69.28
2022-12-24T18:08:11.311Z,46.95
2022-12-24T18:10:39.189Z,35.28
2022-12-24T18:13:07.946Z,33.90
2022-12-24T18:15:40.248Z,33.88
2022-12-24T18:18:09.313Z,34.55
2022-12-24T18:20:44.389Z,37.92
2022-12-24T18:23:14.948Z,29.02
2022-12-24T18:25:42.789Z,31.60
2022-12-24T18:28:11.185Z,33.55
2022-12-24T18:30:42.522Z,29.25
2022-12-24T18:33:10.478Z,31.27
2022-12-24T18:35:38.267Z,33.22
2022-12-24T18:38:06.504Z,34.67
2022-12-24T18:40:37.871Z,30.35
2022-12-24T18:43:05.723Z,33.28
2022-12-24T18:45:34.202Z,33.28
2022-12-24T18:48:03.562Z,36.63
2022-12-24T18:50:31.327Z,25.60
2022-12-24T18:52:59.280Z,34.10
2022-12-24T18:55:27.526Z,36.85
2022-12-24T18:57:55.458Z,38.78
2022-12-24T19:00:24.501Z,29.95
2022-12-24T19:02:52.464Z,33.60
2022-12-24T19:05:21.999Z,39.10
2022-12-24T19:07:50.502Z,29.95
2022-12-24T19:10:18.439Z,33.83
2022-12-24T19:12:46.402Z,36.65
2022-12-24T19:15:15.524Z,39.67
2022-12-24T19:17:44.060Z,32.72
2022-12-24T19:20:12.708Z,31.17
2022-12-24T19:22:42.720Z,26.67
2022-12-24T19:25:10.839Z,20.33
2022-12-24T19:27:38.744Z,31.00
2022-12-24T19:30:08.403Z,24.70
2022-12-24T19:32:36.244Z,27.85
2022-12-24T19:35:04.062Z,29.42
2022-12-24T19:37:32.473Z,26.23
2022-12-24T19:40:01.767Z,25.25
2022-12-24T19:42:30.732Z,17.60
2022-12-24T19:44:58.990Z,28.58
2022-12-24T19:47:26.874Z,22.92
2022-12-24T19:49:54.891Z,25.77
2022-12-24T19:52:30.008Z,30.98
2022-12-24T19:54:57.931Z,37.25
2022-12-24T19:57:28.047Z,30.75
2022-12-24T19:59:56.060Z,34.90
2022-12-24T20:02:24.386Z,48.90
2022-12-24T20:04:53.151Z,39.03
2022-12-24T20:07:20.907Z,26.55
2022-12-24T20:09:48.743Z,32.20
2022-12-24T20:12:16.979Z,33.63
2022-12-24T20:14:46.437Z,33.33
2022-12-24T20:17:15.106Z,26.42
2022-12-24T20:19:43.440Z,34.60
2022-12-24T20:22:12.325Z,27.63
2022-12-24T20:24:40.437Z,22.05
2022-12-24T20:27:08.833Z,30.90
2022-12-24T20:29:36.827Z,33.58
2022-12-24T20:32:07.012Z,34.22
2022-12-24T20:34:35.542Z,30.45
2022-12-24T20:37:04.274Z,23.05
2022-12-24T20:39:32.149Z,25.90
2022-12-24T20:42:01.477Z,22.05
2022-12-24T20:44:29.385Z,15.98
2022-12-24T20:46:57.276Z,23.15
2022-12-24T20:49:26.765Z,26.85
2022-12-24T20:51:54.699Z,20.08
2022-12-24T20:54:22.448Z,24.35
2022-12-24T20:56:57.886Z,22.90
2022-12-24T20:59:26.885Z,28.30
2022-12-24T21:01:55.471Z,34.90
2022-12-24T21:04:23.513Z,25.08
2022-12-24T21:06:52.846Z,23.25
2022-12-24T21:09:20.988Z,25.80
2022-12-24T21:12:11.670Z,20.88
2022-12-24T21:14:40.145Z,19.98
2022-12-24T21:17:13.601Z,26.30
2022-12-24T21:22:13.196Z,19.83
2022-12-24T21:24:41.244Z,27.13
2022-12-24T21:27:09.732Z,23.48
2022-12-24T21:29:37.673Z,29.27
2022-12-24T21:32:05.723Z,24.40
2022-12-24T21:34:33.984Z,23.98
2022-12-24T21:37:01.914Z,18.88
2022-12-24T21:39:31.381Z,19.33
2022-12-24T21:41:59.891Z,22.10
2022-12-24T21:44:27.595Z,32.33
2022-12-24T21:46:55.549Z,20.80
2022-12-24T21:49:41.117Z,24.52
2022-12-24T21:52:08.891Z,19.75
2022-12-24T21:54:37.119Z,18.42
2022-12-24T21:57:26.176Z,19.05
2022-12-24T21:59:56.980Z,16.50
2022-12-24T22:02:28.480Z,18.10
2022-12-24T22:04:56.520Z,23.38
2022-12-24T22:07:44.735Z,16.40
2022-12-24T22:10:33.054Z,17.95
2022-12-24T22:13:03.783Z,26.70
2022-12-24T22:15:31.863Z,23.92
2022-12-24T22:17:59.765Z,16.90
2022-12-24T22:20:28.306Z,21.33
2022-12-24T22:22:56.145Z,21.92
2022-12-24T22:25:25.357Z,21.35
2022-12-24T22:27:53.750Z,23.10
2022-12-24T22:30:21.828Z,20.77
2022-12-24T22:32:49.675Z,16.48
2022-12-24T22:35:18.911Z,22.35
2022-12-24T22:37:47.363Z,23.98
2022-12-24T22:40:15.523Z,15.85
2022-12-24T22:42:45.495Z,19.83
2022-12-24T22:45:20.005Z,18.63
2022-12-24T22:47:50.600Z,23.77
2022-12-24T22:50:18.478Z,19.17
2022-12-24T22:52:46.609Z,19.13
2022-12-24T22:55:15.180Z,14.82
2022-12-24T22:57:44.562Z,15.15
2022-12-24T23:00:17.714Z,14.68
2022-12-24T23:02:45.599Z,18.20
2022-12-24T23:05:16.329Z,15.02
2022-12-24T23:07:44.268Z,17.10
2022-12-24T23:10:12.210Z,15.40
2022-12-24T23:12:57.747Z,15.23
2022-12-24T23:15:26.967Z,19.63
2022-12-24T23:17:56.170Z,20.27
2022-12-24T23:20:24.395Z,14.23
2022-12-24T23:22:52.139Z,15.25
2022-12-24T23:25:20.472Z,13.27
2022-12-24T23:27:48.784Z,16.23
2022-12-24T23:30:17.220Z,13.13
2022-12-24T23:32:48.176Z,15.20
2022-12-24T23:35:16.637Z,17.77
2022-12-24T23:37:44.663Z,9.60
2022-12-24T23:40:12.945Z,8.10
2022-12-24T23:42:41.611Z,13.68
2022-12-24T23:45:10.340Z,13.32
2022-12-24T23:47:38.203Z,12.25
2022-12-24T23:50:10.748Z,10.25
2022-12-24T23:52:38.512Z,16.77
2022-12-24T23:55:07.317Z,11.30
2022-12-24T23:57:35.337Z,9.55
